sensor_id;sensor_type;location;lat;lon;timestamp;P1;durP1;ratioP1;P2;durP2;ratioP2
37823;SDS011;23667;43.246;26.576;2022-09-29T00:01:23;1.80;;;1.02;;
37823;SDS011;23667;43.246;26.576;2022-09-29T00:03:48;1.85;;;1.13;;
37823;SDS011;23667;43.246;26.576;2022-09-29T00:06:14;2.65;;;0.98;;
37823;SDS011;23667;43.246;26.576;2022-09-29T00:08:41;2.92;;;1.70;;
37823;SDS011;23667;43.246;26.576;2022-09-29T00:11:08;2.15;;;1.23;;
37823;SDS011;23667;43.246;26.576;2022-09-29T00:13:35;4.72;;;0.88;;
37823;SDS011;23667;43.246;26.576;2022-09-29T00:16:01;2.28;;;1.08;;
37823;SDS011;23667;43.246;26.576;2022-09-29T00:18:27;3.03;;;1.38;;
37823;SDS011;23667;43.246;26.576;2022-09-29T00:20:55;3.65;;;0.63;;
37823;SDS011;23667;43.246;26.576;2022-09-29T00:23:25;3.80;;;1.08;;
37823;SDS011;23667;43.246;26.576;2022-09-29T00:26:11;3.03;;;1.33;;
37823;SDS011;23667;43.246;26.576;2022-09-29T00:28:40;2.17;;;1.00;;
37823;SDS011;23667;43.246;26.576;2022-09-29T00:31:10;1.65;;;0.73;;
37823;SDS011;23667;43.246;26.576;2022-09-29T00:33:36;4.03;;;0.90;;
37823;SDS011;23667;43.246;26.576;2022-09-29T00:36:06;2.38;;;0.93;;
37823;SDS011;23667;43.246;26.576;2022-09-29T00:38:34;1.23;;;0.45;;
37823;SDS011;23667;43.246;26.576;2022-09-29T00:41:00;2.63;;;0.88;;
37823;SDS011;23667;43.246;26.576;2022-09-29T00:46:23;3.47;;;0.98;;
37823;SDS011;23667;43.246;26.576;2022-09-29T00:49:00;4.80;;;0.70;;
37823;SDS011;23667;43.246;26.576;2022-09-29T00:51:35;4.22;;;1.08;;
37823;SDS011;23667;43.246;26.576;2022-09-29T00:54:04;2.22;;;0.68;;
37823;SDS011;23667;43.246;26.576;2022-09-29T00:56:32;3.85;;;1.10;;
37823;SDS011;23667;43.246;26.576;2022-09-29T00:59:02;2.10;;;0.70;;
37823;SDS011;23667;43.246;26.576;2022-09-29T01:01:31;4.38;;;1.10;;
37823;SDS011;23667;43.246;26.576;2022-09-29T01:04:02;1.50;;;0.60;;
37823;SDS011;23667;43.246;26.576;2022-09-29T01:06:35;2.20;;;0.70;;
37823;SDS011;23667;43.246;26.576;2022-09-29T01:11:35;1.27;;;0.63;;
37823;SDS011;23667;43.246;26.576;2022-09-29T01:14:02;2.25;;;0.73;;
37823;SDS011;23667;43.246;26.576;2022-09-29T01:16:31;3.75;;;0.95;;
37823;SDS011;23667;43.246;26.576;2022-09-29T01:18:58;1.73;;;0.70;;
37823;SDS011;23667;43.246;26.576;2022-09-29T01:21:34;1.80;;;0.82;;
37823;SDS011;23667;43.246;26.576;2022-09-29T01:24:54;3.22;;;0.70;;
37823;SDS011;23667;43.246;26.576;2022-09-29T01:32:50;2.72;;;0.93;;
37823;SDS011;23667;43.246;26.576;2022-09-29T01:35:33;2.47;;;0.82;;
37823;SDS011;23667;43.246;26.576;2022-09-29T01:38:13;1.88;;;0.77;;
37823;SDS011;23667;43.246;26.576;2022-09-29T01:40:47;1.63;;;0.80;;
37823;SDS011;23667;43.246;26.576;2022-09-29T01:44:04;4.13;;;0.80;;
37823;SDS011;23667;43.246;26.576;2022-09-29T01:46:15;2.67;;;1.45;;
37823;SDS011;23667;43.246;26.576;2022-09-29T01:48:49;4.43;;;1.58;;
37823;SDS011;23667;43.246;26.576;2022-09-29T01:51:22;3.95;;;1.52;;
37823;SDS011;23667;43.246;26.576;2022-09-29T01:53:52;3.42;;;1.33;;
37823;SDS011;23667;43.246;26.576;2022-09-29T01:56:26;4.40;;;1.35;;
37823;SDS011;23667;43.246;26.576;2022-09-29T01:59:00;2.70;;;1.70;;
37823;SDS011;23667;43.246;26.576;2022-09-29T02:01:34;3.55;;;1.38;;
37823;SDS011;23667;43.246;26.576;2022-09-29T02:04:10;2.20;;;1.10;;
37823;SDS011;23667;43.246;26.576;2022-09-29T02:06:43;3.35;;;1.17;;
37823;SDS011;23667;43.246;26.576;2022-09-29T02:09:14;2.50;;;1.30;;
37823;SDS011;23667;43.246;26.576;2022-09-29T02:11:45;2.17;;;1.40;;
37823;SDS011;23667;43.246;26.576;2022-09-29T02:14:21;2.72;;;1.50;;
37823;SDS011;23667;43.246;26.576;2022-09-29T02:16:51;4.32;;;1.30;;
37823;SDS011;23667;43.246;26.576;2022-09-29T02:19:28;2.38;;;1.38;;
37823;SDS011;23667;43.246;26.576;2022-09-29T02:21:58;4.45;;;1.55;;
37823;SDS011;23667;43.246;26.576;2022-09-29T02:24:24;4.50;;;1.65;;
37823;SDS011;23667;43.246;26.576;2022-09-29T02:26:50;5.57;;;1.88;;
37823;SDS011;23667;43.246;26.576;2022-09-29T02:29:16;4.43;;;1.98;;
37823;SDS011;23667;43.246;26.576;2022-09-29T02:31:43;3.30;;;1.85;;
37823;SDS011;23667;43.246;26.576;2022-09-29T02:34:10;4.20;;;1.92;;
37823;SDS011;23667;43.246;26.576;2022-09-29T02:36:48;5.13;;;1.70;;
37823;SDS011;23667;43.246;26.576;2022-09-29T02:54:17;5.63;;;2.17;;
37823;SDS011;23667;43.246;26.576;2022-09-29T03:01:52;3.58;;;2.15;;
37823;SDS011;23667;43.246;26.576;2022-09-29T03:04:21;6.07;;;2.55;;
37823;SDS011;23667;43.246;26.576;2022-09-29T03:06:48;4.63;;;2.08;;
37823;SDS011;23667;43.246;26.576;2022-09-29T03:09:15;4.45;;;2.22;;
37823;SDS011;23667;43.246;26.576;2022-09-29T03:11:41;6.88;;;2.08;;
37823;SDS011;23667;43.246;26.576;2022-09-29T03:14:06;5.38;;;2.08;;
37823;SDS011;23667;43.246;26.576;2022-09-29T03:16:32;4.97;;;1.85;;
37823;SDS011;23667;43.246;26.576;2022-09-29T03:18:59;4.32;;;1.48;;
37823;SDS011;23667;43.246;26.576;2022-09-29T03:21:25;6.40;;;3.13;;
37823;SDS011;23667;43.246;26.576;2022-09-29T03:23:51;2.45;;;1.60;;
37823;SDS011;23667;43.246;26.576;2022-09-29T03:26:17;3.58;;;1.88;;
37823;SDS011;23667;43.246;26.576;2022-09-29T03:28:42;6.75;;;2.10;;
37823;SDS011;23667;43.246;26.576;2022-09-29T03:31:08;2.92;;;1.85;;
37823;SDS011;23667;43.246;26.576;2022-09-29T03:33:35;6.72;;;2.25;;
37823;SDS011;23667;43.246;26.576;2022-09-29T03:36:02;3.17;;;2.08;;
37823;SDS011;23667;43.246;26.576;2022-09-29T03:38:29;4.53;;;2.03;;
37823;SDS011;23667;43.246;26.576;2022-09-29T03:40:54;4.60;;;2.17;;
37823;SDS011;23667;43.246;26.576;2022-09-29T03:43:20;8.50;;;2.63;;
37823;SDS011;23667;43.246;26.576;2022-09-29T03:45:48;8.10;;;2.78;;
37823;SDS011;23667;43.246;26.576;2022-09-29T03:48:15;4.72;;;1.98;;
37823;SDS011;23667;43.246;26.576;2022-09-29T03:50:43;7.47;;;2.33;;
37823;SDS011;23667;43.246;26.576;2022-09-29T03:53:09;2.97;;;2.10;;
37823;SDS011;23667;43.246;26.576;2022-09-29T03:55:35;6.05;;;1.90;;
37823;SDS011;23667;43.246;26.576;2022-09-29T03:58:01;3.92;;;1.80;;
37823;SDS011;23667;43.246;26.576;2022-09-29T04:00:26;6.50;;;2.50;;
37823;SDS011;23667;43.246;26.576;2022-09-29T04:02:55;7.30;;;2.53;;
37823;SDS011;23667;43.246;26.576;2022-09-29T04:05:20;5.95;;;2.95;;
37823;SDS011;23667;43.246;26.576;2022-09-29T04:07:46;5.95;;;2.15;;
37823;SDS011;23667;43.246;26.576;2022-09-29T04:10:12;7.28;;;2.78;;
37823;SDS011;23667;43.246;26.576;2022-09-29T04:12:38;4.07;;;2.60;;
37823;SDS011;23667;43.246;26.576;2022-09-29T04:15:03;7.03;;;3.00;;
37823;SDS011;23667;43.246;26.576;2022-09-29T04:17:29;4.97;;;2.78;;
37823;SDS011;23667;43.246;26.576;2022-09-29T04:19:55;4.65;;;2.63;;
37823;SDS011;23667;43.246;26.576;2022-09-29T04:22:21;7.55;;;2.45;;
37823;SDS011;23667;43.246;26.576;2022-09-29T04:24:46;10.43;;;2.58;;
37823;SDS011;23667;43.246;26.576;2022-09-29T04:27:12;7.03;;;2.40;;
37823;SDS011;23667;43.246;26.576;2022-09-29T04:29:39;5.57;;;2.67;;
37823;SDS011;23667;43.246;26.576;2022-09-29T04:32:04;8.60;;;3.10;;
37823;SDS011;23667;43.246;26.576;2022-09-29T04:34:30;10.32;;;3.60;;
37823;SDS011;23667;43.246;26.576;2022-09-29T04:36:56;16.65;;;4.50;;
37823;SDS011;23667;43.246;26.576;2022-09-29T04:39:22;8.13;;;3.30;;
37823;SDS011;23667;43.246;26.576;2022-09-29T04:41:48;8.18;;;3.30;;
37823;SDS011;23667;43.246;26.576;2022-09-29T04:44:13;11.50;;;4.25;;
37823;SDS011;23667;43.246;26.576;2022-09-29T04:46:39;6.78;;;3.08;;
37823;SDS011;23667;43.246;26.576;2022-09-29T04:49:04;14.95;;;4.18;;
37823;SDS011;23667;43.246;26.576;2022-09-29T04:51:30;9.20;;;4.82;;
37823;SDS011;23667;43.246;26.576;2022-09-29T04:53:56;9.95;;;4.50;;
37823;SDS011;23667;43.246;26.576;2022-09-29T04:56:22;10.43;;;3.45;;
37823;SDS011;23667;43.246;26.576;2022-09-29T04:58:48;7.25;;;3.92;;
37823;SDS011;23667;43.246;26.576;2022-09-29T05:01:14;8.55;;;3.20;;
37823;SDS011;23667;43.246;26.576;2022-09-29T05:03:40;9.40;;;3.60;;
37823;SDS011;23667;43.246;26.576;2022-09-29T05:06:06;4.65;;;3.17;;
37823;SDS011;23667;43.246;26.576;2022-09-29T05:08:33;9.68;;;2.60;;
37823;SDS011;23667;43.246;26.576;2022-09-29T05:11:01;7.07;;;2.47;;
37823;SDS011;23667;43.246;26.576;2022-09-29T05:13:29;14.52;;;3.63;;
37823;SDS011;23667;43.246;26.576;2022-09-29T05:15:55;11.32;;;3.15;;
37823;SDS011;23667;43.246;26.576;2022-09-29T05:18:21;6.50;;;2.45;;
37823;SDS011;23667;43.246;26.576;2022-09-29T05:20:47;6.88;;;2.75;;
37823;SDS011;23667;43.246;26.576;2022-09-29T05:23:13;12.15;;;2.55;;
37823;SDS011;23667;43.246;26.576;2022-09-29T05:25:38;7.85;;;2.95;;
37823;SDS011;23667;43.246;26.576;2022-09-29T05:28:04;12.27;;;3.17;;
37823;SDS011;23667;43.246;26.576;2022-09-29T05:30:30;4.82;;;2.75;;
37823;SDS011;23667;43.246;26.576;2022-09-29T05:32:55;7.13;;;3.10;;
37823;SDS011;23667;43.246;26.576;2022-09-29T05:35:21;7.50;;;2.38;;
37823;SDS011;23667;43.246;26.576;2022-09-29T05:37:46;6.05;;;3.05;;
37823;SDS011;23667;43.246;26.576;2022-09-29T05:40:12;4.30;;;2.70;;
37823;SDS011;23667;43.246;26.576;2022-09-29T05:42:37;6.05;;;2.58;;
37823;SDS011;23667;43.246;26.576;2022-09-29T05:45:05;5.30;;;2.70;;
37823;SDS011;23667;43.246;26.576;2022-09-29T05:47:33;5.65;;;2.92;;
37823;SDS011;23667;43.246;26.576;2022-09-29T05:49:58;11.60;;;3.28;;
37823;SDS011;23667;43.246;26.576;2022-09-29T05:52:23;2.90;;;2.53;;
37823;SDS011;23667;43.246;26.576;2022-09-29T05:54:49;3.95;;;2.05;;
37823;SDS011;23667;43.246;26.576;2022-09-29T05:57:15;4.47;;;1.75;;
37823;SDS011;23667;43.246;26.576;2022-09-29T05:59:41;9.55;;;3.17;;
37823;SDS011;23667;43.246;26.576;2022-09-29T06:02:07;9.13;;;2.90;;
37823;SDS011;23667;43.246;26.576;2022-09-29T06:04:33;7.53;;;2.00;;
37823;SDS011;23667;43.246;26.576;2022-09-29T06:07:00;6.43;;;2.58;;
37823;SDS011;23667;43.246;26.576;2022-09-29T06:09:25;5.82;;;2.47;;
37823;SDS011;23667;43.246;26.576;2022-09-29T06:11:51;4.70;;;2.40;;
37823;SDS011;23667;43.246;26.576;2022-09-29T06:14:16;7.40;;;3.13;;
37823;SDS011;23667;43.246;26.576;2022-09-29T06:16:42;6.38;;;2.00;;
37823;SDS011;23667;43.246;26.576;2022-09-29T06:19:08;7.88;;;2.53;;
37823;SDS011;23667;43.246;26.576;2022-09-29T06:21:34;4.20;;;2.63;;
37823;SDS011;23667;43.246;26.576;2022-09-29T06:24:01;6.25;;;2.10;;
37823;SDS011;23667;43.246;26.576;2022-09-29T06:26:28;8.93;;;2.13;;
37823;SDS011;23667;43.246;26.576;2022-09-29T06:28:54;5.43;;;2.58;;
37823;SDS011;23667;43.246;26.576;2022-09-29T06:31:21;4.95;;;2.10;;
37823;SDS011;23667;43.246;26.576;2022-09-29T06:33:48;7.05;;;1.83;;
37823;SDS011;23667;43.246;26.576;2022-09-29T06:36:21;8.32;;;2.35;;
37823;SDS011;23667;43.246;26.576;2022-09-29T06:39:09;5.35;;;1.60;;
37823;SDS011;23667;43.246;26.576;2022-09-29T06:41:36;3.38;;;1.70;;
37823;SDS011;23667;43.246;26.576;2022-09-29T06:44:02;5.78;;;1.98;;
37823;SDS011;23667;43.246;26.576;2022-09-29T06:46:28;3.58;;;1.45;;
37823;SDS011;23667;43.246;26.576;2022-09-29T06:48:54;5.57;;;1.60;;
37823;SDS011;23667;43.246;26.576;2022-09-29T06:51:20;3.28;;;1.95;;
37823;SDS011;23667;43.246;26.576;2022-09-29T06:53:47;5.50;;;2.05;;
37823;SDS011;23667;43.246;26.576;2022-09-29T06:56:13;3.75;;;1.80;;
37823;SDS011;23667;43.246;26.576;2022-09-29T06:58:39;4.40;;;1.23;;
37823;SDS011;23667;43.246;26.576;2022-09-29T07:01:05;3.70;;;1.60;;
37823;SDS011;23667;43.246;26.576;2022-09-29T07:03:31;3.05;;;1.40;;
37823;SDS011;23667;43.246;26.576;2022-09-29T07:05:59;7.57;;;2.65;;
37823;SDS011;23667;43.246;26.576;2022-09-29T07:08:26;4.90;;;2.85;;
37823;SDS011;23667;43.246;26.576;2022-09-29T07:10:52;6.60;;;2.80;;
37823;SDS011;23667;43.246;26.576;2022-09-29T07:13:18;6.85;;;2.60;;
37823;SDS011;23667;43.246;26.576;2022-09-29T07:15:44;4.68;;;2.33;;
37823;SDS011;23667;43.246;26.576;2022-09-29T07:18:12;6.45;;;1.83;;
37823;SDS011;23667;43.246;26.576;2022-09-29T07:20:37;6.57;;;3.20;;
37823;SDS011;23667;43.246;26.576;2022-09-29T07:23:04;7.00;;;2.85;;
37823;SDS011;23667;43.246;26.576;2022-09-29T07:25:31;6.20;;;2.67;;
37823;SDS011;23667;43.246;26.576;2022-09-29T07:27:58;5.43;;;2.28;;
37823;SDS011;23667;43.246;26.576;2022-09-29T07:30:24;3.53;;;1.77;;
37823;SDS011;23667;43.246;26.576;2022-09-29T07:32:51;8.85;;;2.47;;
37823;SDS011;23667;43.246;26.576;2022-09-29T07:35:18;5.97;;;1.65;;
37823;SDS011;23667;43.246;26.576;2022-09-29T07:37:49;7.93;;;1.98;;
37823;SDS011;23667;43.246;26.576;2022-09-29T07:40:19;7.85;;;2.03;;
37823;SDS011;23667;43.246;26.576;2022-09-29T07:42:46;4.18;;;1.30;;
37823;SDS011;23667;43.246;26.576;2022-09-29T07:45:12;5.13;;;1.30;;
37823;SDS011;23667;43.246;26.576;2022-09-29T07:47:37;5.10;;;1.30;;
37823;SDS011;23667;43.246;26.576;2022-09-29T07:50:03;5.78;;;1.10;;
37823;SDS011;23667;43.246;26.576;2022-09-29T07:52:29;12.50;;;1.75;;
37823;SDS011;23667;43.246;26.576;2022-09-29T07:54:54;8.02;;;0.90;;
37823;SDS011;23667;43.246;26.576;2022-09-29T07:57:20;2.38;;;0.82;;
37823;SDS011;23667;43.246;26.576;2022-09-29T07:59:45;8.27;;;1.40;;
37823;SDS011;23667;43.246;26.576;2022-09-29T08:02:11;3.40;;;0.80;;
37823;SDS011;23667;43.246;26.576;2022-09-29T08:04:36;3.58;;;1.13;;
37823;SDS011;23667;43.246;26.576;2022-09-29T08:07:02;3.72;;;0.63;;
37823;SDS011;23667;43.246;26.576;2022-09-29T08:09:28;1.63;;;0.52;;
37823;SDS011;23667;43.246;26.576;2022-09-29T08:11:53;3.05;;;0.47;;
37823;SDS011;23667;43.246;26.576;2022-09-29T08:14:19;1.88;;;0.40;;
37823;SDS011;23667;43.246;26.576;2022-09-29T08:16:44;4.35;;;0.70;;
37823;SDS011;23667;43.246;26.576;2022-09-29T08:19:11;1.85;;;0.70;;
37823;SDS011;23667;43.246;26.576;2022-09-29T08:21:36;6.57;;;1.02;;
37823;SDS011;23667;43.246;26.576;2022-09-29T08:24:03;5.38;;;0.73;;
37823;SDS011;23667;43.246;26.576;2022-09-29T08:26:30;3.10;;;0.55;;
37823;SDS011;23667;43.246;26.576;2022-09-29T08:29:01;4.20;;;0.50;;
37823;SDS011;23667;43.246;26.576;2022-09-29T08:31:28;1.23;;;0.40;;
37823;SDS011;23667;43.246;26.576;2022-09-29T08:33:55;1.45;;;0.60;;
37823;SDS011;23667;43.246;26.576;2022-09-29T08:36:24;1.67;;;0.50;;
37823;SDS011;23667;43.246;26.576;2022-09-29T08:38:51;4.15;;;0.55;;
37823;SDS011;23667;43.246;26.576;2022-09-29T08:49:56;1.05;;;0.20;;
37823;SDS011;23667;43.246;26.576;2022-09-29T08:52:28;1.05;;;0.20;;
37823;SDS011;23667;43.246;26.576;2022-09-29T08:55:07;0.60;;;0.20;;
37823;SDS011;23667;43.246;26.576;2022-09-29T08:57:57;2.90;;;0.30;;
37823;SDS011;23667;43.246;26.576;2022-09-29T09:00:32;3.20;;;0.30;;
37823;SDS011;23667;43.246;26.576;2022-09-29T09:22:57;0.93;;;0.20;;
37823;SDS011;23667;43.246;26.576;2022-09-29T09:28:16;0.85;;;0.30;;
37823;SDS011;23667;43.246;26.576;2022-09-29T09:33:42;0.70;;;0.20;;
37823;SDS011;23667;43.246;26.576;2022-09-29T09:36:22;1.50;;;0.20;;
37823;SDS011;23667;43.246;26.576;2022-09-29T09:41:44;2.42;;;0.30;;
37823;SDS011;23667;43.246;26.576;2022-09-29T09:44:16;0.45;;;0.20;;
37823;SDS011;23667;43.246;26.576;2022-09-29T09:46:49;0.93;;;0.20;;
37823;SDS011;23667;43.246;26.576;2022-09-29T09:49:39;1.48;;;0.70;;
37823;SDS011;23667;43.246;26.576;2022-09-29T09:54:37;1.40;;;0.30;;
37823;SDS011;23667;43.246;26.576;2022-09-29T10:02:05;1.20;;;0.30;;
37823;SDS011;23667;43.246;26.576;2022-09-29T10:04:50;1.30;;;0.35;;
37823;SDS011;23667;43.246;26.576;2022-09-29T10:07:17;1.13;;;0.30;;
37823;SDS011;23667;43.246;26.576;2022-09-29T10:09:44;4.07;;;0.30;;
37823;SDS011;23667;43.246;26.576;2022-09-29T10:12:14;1.35;;;0.40;;
37823;SDS011;23667;43.246;26.576;2022-09-29T10:14:44;1.98;;;0.40;;
37823;SDS011;23667;43.246;26.576;2022-09-29T10:17:24;0.53;;;0.23;;
37823;SDS011;23667;43.246;26.576;2022-09-29T10:20:01;0.65;;;0.20;;
37823;SDS011;23667;43.246;26.576;2022-09-29T10:22:31;0.70;;;0.30;;
37823;SDS011;23667;43.246;26.576;2022-09-29T10:27:49;2.75;;;0.30;;
37823;SDS011;23667;43.246;26.576;2022-09-29T10:30:19;3.13;;;0.30;;
37823;SDS011;23667;43.246;26.576;2022-09-29T10:32:45;0.52;;;0.22;;
37823;SDS011;23667;43.246;26.576;2022-09-29T10:35:16;2.17;;;0.38;;
37823;SDS011;23667;43.246;26.576;2022-09-29T10:38:00;0.63;;;0.20;;
37823;SDS011;23667;43.246;26.576;2022-09-29T10:40:52;1.85;;;0.30;;
37823;SDS011;23667;43.246;26.576;2022-09-29T10:43:25;1.58;;;0.30;;
37823;SDS011;23667;43.246;26.576;2022-09-29T10:45:58;3.05;;;0.40;;
37823;SDS011;23667;43.246;26.576;2022-09-29T10:48:24;0.88;;;0.30;;
37823;SDS011;23667;43.246;26.576;2022-09-29T10:50:55;1.00;;;0.20;;
37823;SDS011;23667;43.246;26.576;2022-09-29T10:55:50;3.15;;;0.35;;
37823;SDS011;23667;43.246;26.576;2022-09-29T10:58:24;1.48;;;0.40;;
37823;SDS011;23667;43.246;26.576;2022-09-29T11:01:28;2.60;;;0.40;;
37823;SDS011;23667;43.246;26.576;2022-09-29T11:03:48;0.88;;;0.30;;
37823;SDS011;23667;43.246;26.576;2022-09-29T11:06:38;1.25;;;0.38;;
37823;SDS011;23667;43.246;26.576;2022-09-29T11:09:06;3.13;;;0.30;;
37823;SDS011;23667;43.246;26.576;2022-09-29T11:11:53;1.60;;;0.85;;
37823;SDS011;23667;43.246;26.576;2022-09-29T11:14:31;0.55;;;0.20;;
37823;SDS011;23667;43.246;26.576;2022-09-29T11:19:56;0.85;;;0.35;;
37823;SDS011;23667;43.246;26.576;2022-09-29T11:33:55;1.38;;;0.40;;
37823;SDS011;23667;43.246;26.576;2022-09-29T11:39:43;2.60;;;0.40;;
37823;SDS011;23667;43.246;26.576;2022-09-29T11:44:56;1.48;;;0.40;;
37823;SDS011;23667;43.246;26.576;2022-09-29T11:55:36;2.30;;;0.60;;
37823;SDS011;23667;43.246;26.576;2022-09-29T11:58:31;1.38;;;0.40;;
37823;SDS011;23667;43.246;26.576;2022-09-29T12:17:21;3.80;;;0.75;;
37823;SDS011;23667;43.246;26.576;2022-09-29T12:19:57;1.92;;;0.60;;
37823;SDS011;23667;43.246;26.576;2022-09-29T12:22:29;1.42;;;0.57;;
37823;SDS011;23667;43.246;26.576;2022-09-29T12:24:56;1.73;;;0.55;;
37823;SDS011;23667;43.246;26.576;2022-09-29T12:30:14;2.95;;;0.60;;
37823;SDS011;23667;43.246;26.576;2022-09-29T12:38:01;1.42;;;0.52;;
37823;SDS011;23667;43.246;26.576;2022-09-29T12:43:44;1.20;;;0.50;;
37823;SDS011;23667;43.246;26.576;2022-09-29T12:46:18;1.42;;;0.52;;
37823;SDS011;23667;43.246;26.576;2022-09-29T12:49:12;1.63;;;0.68;;
37823;SDS011;23667;43.246;26.576;2022-09-29T12:51:41;1.35;;;0.68;;
37823;SDS011;23667;43.246;26.576;2022-09-29T12:57:09;1.38;;;0.60;;
37823;SDS011;23667;43.246;26.576;2022-09-29T13:10:11;1.40;;;0.65;;
37823;SDS011;23667;43.246;26.576;2022-09-29T13:15:44;1.67;;;0.50;;
37823;SDS011;23667;43.246;26.576;2022-09-29T13:30:33;3.65;;;0.70;;
37823;SDS011;23667;43.246;26.576;2022-09-29T13:32:42;1.23;;;0.40;;
37823;SDS011;23667;43.246;26.576;2022-09-29T13:35:15;1.40;;;0.50;;
37823;SDS011;23667;43.246;26.576;2022-09-29T13:40:20;0.73;;;0.30;;
37823;SDS011;23667;43.246;26.576;2022-09-29T13:42:51;1.90;;;0.50;;
37823;SDS011;23667;43.246;26.576;2022-09-29T13:47:54;3.53;;;0.40;;
37823;SDS011;23667;43.246;26.576;2022-09-29T13:55:55;2.35;;;0.40;;
37823;SDS011;23667;43.246;26.576;2022-09-29T14:01:08;2.20;;;0.40;;
37823;SDS011;23667;43.246;26.576;2022-09-29T14:03:39;6.65;;;0.55;;
37823;SDS011;23667;43.246;26.576;2022-09-29T14:14:24;5.50;;;0.82;;
37823;SDS011;23667;43.246;26.576;2022-09-29T14:24:54;3.25;;;0.80;;
37823;SDS011;23667;43.246;26.576;2022-09-29T14:27:57;3.30;;;0.70;;
37823;SDS011;23667;43.246;26.576;2022-09-29T14:33:08;2.60;;;0.80;;
37823;SDS011;23667;43.246;26.576;2022-09-29T14:35:36;5.40;;;1.25;;
37823;SDS011;23667;43.246;26.576;2022-09-29T14:40:52;2.45;;;1.10;;
37823;SDS011;23667;43.246;26.576;2022-09-29T14:43:20;4.43;;;0.80;;
37823;SDS011;23667;43.246;26.576;2022-09-29T14:49:07;2.05;;;0.50;;
37823;SDS011;23667;43.246;26.576;2022-09-29T15:00:41;1.83;;;0.40;;
37823;SDS011;23667;43.246;26.576;2022-09-29T15:03:08;2.53;;;0.43;;
37823;SDS011;23667;43.246;26.576;2022-09-29T15:05:34;2.45;;;0.70;;
37823;SDS011;23667;43.246;26.576;2022-09-29T15:08:01;0.85;;;0.40;;
37823;SDS011;23667;43.246;26.576;2022-09-29T15:10:45;1.50;;;0.55;;
37823;SDS011;23667;43.246;26.576;2022-09-29T15:13:15;1.48;;;0.57;;
37823;SDS011;23667;43.246;26.576;2022-09-29T15:15:48;1.23;;;0.70;;
37823;SDS011;23667;43.246;26.576;2022-09-29T15:21:05;7.20;;;0.52;;
37823;SDS011;23667;43.246;26.576;2022-09-29T15:26:12;1.83;;;0.70;;
37823;SDS011;23667;43.246;26.576;2022-09-29T15:28:39;2.35;;;0.68;;
37823;SDS011;23667;43.246;26.576;2022-09-29T15:31:10;2.08;;;0.50;;
37823;SDS011;23667;43.246;26.576;2022-09-29T15:33:42;1.45;;;0.68;;
37823;SDS011;23667;43.246;26.576;2022-09-29T15:38:57;6.45;;;1.02;;
37823;SDS011;23667;43.246;26.576;2022-09-29T15:41:26;1.58;;;0.75;;
37823;SDS011;23667;43.246;26.576;2022-09-29T15:44:01;6.10;;;0.85;;
37823;SDS011;23667;43.246;26.576;2022-09-29T15:46:39;5.72;;;1.20;;
37823;SDS011;23667;43.246;26.576;2022-09-29T15:49:18;3.38;;;0.98;;
37823;SDS011;23667;43.246;26.576;2022-09-29T15:51:56;5.60;;;0.95;;
37823;SDS011;23667;43.246;26.576;2022-09-29T15:54:22;8.00;;;1.17;;
37823;SDS011;23667;43.246;26.576;2022-09-29T15:56:49;8.55;;;1.20;;
37823;SDS011;23667;43.246;26.576;2022-09-29T15:59:47;6.68;;;1.30;;
37823;SDS011;23667;43.246;26.576;2022-09-29T16:04:53;3.08;;;0.82;;
37823;SDS011;23667;43.246;26.576;2022-09-29T16:07:24;1.75;;;1.05;;
37823;SDS011;23667;43.246;26.576;2022-09-29T16:10:15;3.88;;;1.10;;
37823;SDS011;23667;43.246;26.576;2022-09-29T16:12:45;3.10;;;1.00;;
37823;SDS011;23667;43.246;26.576;2022-09-29T16:15:15;6.22;;;1.38;;
37823;SDS011;23667;43.246;26.576;2022-09-29T16:17:48;5.75;;;1.65;;
37823;SDS011;23667;43.246;26.576;2022-09-29T16:20:15;4.90;;;2.83;;
37823;SDS011;23667;43.246;26.576;2022-09-29T16:25:21;7.90;;;1.88;;
37823;SDS011;23667;43.246;26.576;2022-09-29T16:27:53;9.88;;;2.25;;
37823;SDS011;23667;43.246;26.576;2022-09-29T16:30:33;9.68;;;2.83;;
37823;SDS011;23667;43.246;26.576;2022-09-29T16:33:12;8.20;;;2.80;;
37823;SDS011;23667;43.246;26.576;2022-09-29T16:41:08;8.50;;;3.42;;
37823;SDS011;23667;43.246;26.576;2022-09-29T16:49:50;9.55;;;3.67;;
37823;SDS011;23667;43.246;26.576;2022-09-29T16:55:05;6.90;;;3.60;;
37823;SDS011;23667;43.246;26.576;2022-09-29T17:00:33;6.45;;;2.80;;
37823;SDS011;23667;43.246;26.576;2022-09-29T17:03:00;5.22;;;2.58;;
37823;SDS011;23667;43.246;26.576;2022-09-29T17:05:29;10.25;;;3.80;;
37823;SDS011;23667;43.246;26.576;2022-09-29T17:08:01;8.27;;;3.45;;
37823;SDS011;23667;43.246;26.576;2022-09-29T17:10:28;17.10;;;4.63;;
37823;SDS011;23667;43.246;26.576;2022-09-29T17:12:55;9.75;;;3.97;;
37823;SDS011;23667;43.246;26.576;2022-09-29T17:15:20;13.38;;;4.40;;
37823;SDS011;23667;43.246;26.576;2022-09-29T17:17:48;9.35;;;3.15;;
37823;SDS011;23667;43.246;26.576;2022-09-29T17:20:16;10.27;;;3.65;;
37823;SDS011;23667;43.246;26.576;2022-09-29T17:22:53;8.70;;;2.90;;
37823;SDS011;23667;43.246;26.576;2022-09-29T17:25:19;8.70;;;3.50;;
37823;SDS011;23667;43.246;26.576;2022-09-29T17:27:44;13.55;;;5.13;;
37823;SDS011;23667;43.246;26.576;2022-09-29T17:30:30;12.65;;;4.63;;
37823;SDS011;23667;43.246;26.576;2022-09-29T17:32:56;7.47;;;3.83;;
37823;SDS011;23667;43.246;26.576;2022-09-29T17:35:44;5.18;;;2.90;;
37823;SDS011;23667;43.246;26.576;2022-09-29T17:38:13;6.30;;;2.90;;
37823;SDS011;23667;43.246;26.576;2022-09-29T17:43:12;11.40;;;2.63;;
37823;SDS011;23667;43.246;26.576;2022-09-29T17:45:37;11.27;;;3.35;;
37823;SDS011;23667;43.246;26.576;2022-09-29T17:48:05;6.63;;;2.78;;
37823;SDS011;23667;43.246;26.576;2022-09-29T17:50:32;4.82;;;2.00;;
37823;SDS011;23667;43.246;26.576;2022-09-29T17:53:04;10.35;;;2.58;;
37823;SDS011;23667;43.246;26.576;2022-09-29T17:55:31;7.68;;;2.13;;
37823;SDS011;23667;43.246;26.576;2022-09-29T17:57:58;10.15;;;2.42;;
37823;SDS011;23667;43.246;26.576;2022-09-29T18:00:30;12.48;;;3.78;;
37823;SDS011;23667;43.246;26.576;2022-09-29T18:03:01;13.55;;;4.13;;
37823;SDS011;23667;43.246;26.576;2022-09-29T18:05:27;11.95;;;4.07;;
37823;SDS011;23667;43.246;26.576;2022-09-29T18:07:54;11.32;;;3.50;;
37823;SDS011;23667;43.246;26.576;2022-09-29T18:10:25;8.18;;;3.03;;
37823;SDS011;23667;43.246;26.576;2022-09-29T18:12:53;9.10;;;3.20;;
37823;SDS011;23667;43.246;26.576;2022-09-29T18:15:20;5.40;;;2.42;;
37823;SDS011;23667;43.246;26.576;2022-09-29T18:17:46;5.07;;;2.53;;
37823;SDS011;23667;43.246;26.576;2022-09-29T18:20:16;6.57;;;2.67;;
37823;SDS011;23667;43.246;26.576;2022-09-29T18:22:45;7.85;;;2.67;;
37823;SDS011;23667;43.246;26.576;2022-09-29T18:25:15;4.85;;;2.33;;
37823;SDS011;23667;43.246;26.576;2022-09-29T18:27:45;6.80;;;2.25;;
37823;SDS011;23667;43.246;26.576;2022-09-29T18:32:44;6.97;;;2.00;;
37823;SDS011;23667;43.246;26.576;2022-09-29T18:35:24;3.97;;;1.77;;
37823;SDS011;23667;43.246;26.576;2022-09-29T18:37:52;4.82;;;1.42;;
37823;SDS011;23667;43.246;26.576;2022-09-29T18:40:17;3.60;;;1.30;;
37823;SDS011;23667;43.246;26.576;2022-09-29T18:42:44;3.63;;;1.48;;
37823;SDS011;23667;43.246;26.576;2022-09-29T18:45:13;3.80;;;1.08;;
37823;SDS011;23667;43.246;26.576;2022-09-29T18:47:47;3.95;;;1.75;;
37823;SDS011;23667;43.246;26.576;2022-09-29T18:52:45;6.78;;;1.63;;
37823;SDS011;23667;43.246;26.576;2022-09-29T18:55:12;3.35;;;1.17;;
37823;SDS011;23667;43.246;26.576;2022-09-29T18:57:38;2.88;;;1.20;;
37823;SDS011;23667;43.246;26.576;2022-09-29T19:00:05;7.15;;;1.35;;